Terminal Aerodrome Forecast
Issued by NWS

Home | Current Version | Previous Version | Text Only | Print | Product List | Glossary On
Versions: 1 2 3 4 5 6 7 8 9 10 11 12 13 14 15 16
057
FTUS41 KBTV 232016 AAA
TAFSLK
TAF AMD
KSLK 232016Z 2320/2418 22014G24KT P6SM VCSH SCT030 OVC045
     FM232200 23012G21KT P6SM SCT045
     FM240200 24007KT P6SM BKN035
     FM240700 00000KT P6SM BKN040
     FM241100 00000KT P6SM VCSH OVC020
     FM241400 00000KT 3SM -RA BR OVC020=

USA.gov is the U.S. government's official web portal to all federal, state and local government web resources and services.